createdAt,value
2023-05-19T00:01:45.471Z,102686.06
2023-05-19T00:06:51.979Z,102680.81
2023-05-19T00:11:55.025Z,102682.53
2023-05-19T00:17:01.890Z,102689.78
2023-05-19T00:22:05.123Z,102684.38
2023-05-19T00:27:07.670Z,102678.72
2023-05-19T00:32:11.597Z,102677.78
2023-05-19T00:37:14.173Z,102680.41
2023-05-19T00:42:16.910Z,102671.81
2023-05-19T00:47:20.837Z,102678.84
2023-05-19T00:52:23.608Z,102681.78
2023-05-19T00:57:27.045Z,102678.19
2023-05-19T01:02:32.322Z,102684.69
2023-05-19T01:07:35.253Z,102673.34
2023-05-19T01:12:38.047Z,102675.19
2023-05-19T01:17:50.398Z,102669.22
2023-05-19T01:23:18.760Z,102668.00
2023-05-19T01:28:32.232Z,102669.97
2023-05-19T01:33:37.848Z,102670.63
2023-05-19T01:38:41.424Z,102671.66
2023-05-19T01:43:44.068Z,102679.06
2023-05-19T01:48:49.254Z,102678.28
2023-05-19T01:53:51.829Z,102678.28
2023-05-19T01:59:01.319Z,102687.38
2023-05-19T02:04:19.172Z,102689.38
2023-05-19T02:09:26.551Z,102685.22
2023-05-19T02:14:34.125Z,102676.94
2023-05-19T02:19:40.322Z,102672.31
2023-05-19T02:24:44.349Z,102674.63
2023-05-19T02:29:46.875Z,102673.06
2023-05-19T02:34:50.747Z,102680.94
2023-05-19T02:39:53.271Z,102677.72
2023-05-19T02:44:56.214Z,102678.63
2023-05-19T02:50:00.156Z,102684.47
2023-05-19T02:55:02.798Z,102686.31
2023-05-19T03:00:06.806Z,102681.69
2023-05-19T03:05:11.289Z,102683.22
2023-05-19T03:10:13.838Z,102684.59
2023-05-19T03:15:16.631Z,102678.16
2023-05-19T03:20:20.672Z,102675.69
2023-05-19T03:25:23.430Z,102679.84
2023-05-19T03:30:26.102Z,102679.34
2023-05-19T03:35:30.238Z,102681.66
2023-05-19T03:40:33.064Z,102681.66
2023-05-19T03:45:35.866Z,102690.28
2023-05-19T03:50:39.748Z,102687.50
2023-05-19T03:55:42.347Z,102687.34
2023-05-19T04:00:44.893Z,102681.19
2023-05-19T04:05:48.801Z,102687.03
2023-05-19T04:10:51.373Z,102687.38
2023-05-19T04:15:54.039Z,102684.47
2023-05-19T04:20:57.957Z,102691.53
2023-05-19T04:26:01.627Z,102685.69
2023-05-19T04:31:04.333Z,102689.69
2023-05-19T04:36:10.756Z,102696.13
2023-05-19T04:41:14.258Z,102688.91
2023-05-19T04:46:18.035Z,102690.28
2023-05-19T04:51:21.944Z,102688.09
2023-05-19T04:56:24.802Z,102693.94
2023-05-19T05:01:27.393Z,102682.34
2023-05-19T05:06:31.621Z,102688.03
2023-05-19T05:11:34.602Z,102694.28
2023-05-19T05:16:37.763Z,102692.59
2023-05-19T05:21:43.178Z,102700.13
2023-05-19T05:26:46.252Z,102698.69
2023-05-19T05:31:48.766Z,102693.34
2023-05-19T05:36:52.643Z,102698.19
2023-05-19T05:41:55.426Z,102695.66
2023-05-19T05:46:58.511Z,102696.91
2023-05-19T05:52:06.390Z,102689.72
2023-05-19T05:57:10.862Z,102685.31
2023-05-19T06:02:13.616Z,102699.09
2023-05-19T06:07:17.570Z,102697.00
2023-05-19T06:12:20.118Z,102691.00
2023-05-19T06:17:22.656Z,102690.91
2023-05-19T06:22:27.718Z,102688.13
2023-05-19T06:27:30.827Z,102680.16
2023-05-19T06:32:34.774Z,102677.81
2023-05-19T06:37:38.667Z,102673.47
2023-05-19T06:42:41.188Z,102674.09
2023-05-19T06:47:44.509Z,102674.75
2023-05-19T06:52:48.430Z,102669.41
2023-05-19T06:57:50.963Z,102667.50
2023-05-19T07:02:53.608Z,102664.03
2023-05-19T07:07:57.548Z,102667.66
2023-05-19T07:13:00.214Z,102672.59
2023-05-19T07:18:02.751Z,102683.00
2023-05-19T07:23:06.771Z,102676.63
2023-05-19T07:28:09.304Z,102677.69
2023-05-19T07:33:11.870Z,102673.91
2023-05-19T07:38:15.876Z,102668.97
2023-05-19T07:43:18.691Z,102663.59
2023-05-19T07:48:22.390Z,102661.06
2023-05-19T07:53:26.431Z,102664.97
2023-05-19T07:58:29.021Z,102658.94
2023-05-19T08:03:32.051Z,102659.03
2023-05-19T08:08:36.200Z,102653.47
2023-05-19T08:13:38.723Z,102653.50
2023-05-19T08:18:41.278Z,102649.59
2023-05-19T08:23:45.158Z,102645.09
2023-05-19T08:28:47.692Z,102648.44
2023-05-19T08:33:50.222Z,102641.78
2023-05-19T08:38:54.078Z,102637.91
2023-05-19T08:43:56.691Z,102639.63
2023-05-19T08:49:03.113Z,102644.41
2023-05-19T08:54:15.619Z,102629.09
2023-05-19T08:59:19.113Z,102618.63
2023-05-19T09:04:22.248Z,102618.03
2023-05-19T09:09:26.292Z,102615.97
2023-05-19T09:14:29.486Z,102616.72
2023-05-19T09:19:32.221Z,102620.25
2023-05-19T09:24:36.407Z,102616.50
2023-05-19T09:29:38.941Z,102608.09
2023-05-19T09:34:42.724Z,102609.19
2023-05-19T09:39:49.186Z,102603.75
2023-05-19T09:44:52.024Z,102610.53
2023-05-19T09:49:54.906Z,102601.28
2023-05-19T09:55:00.210Z,102602.97
2023-05-19T10:00:10.166Z,102585.84
2023-05-19T10:05:16.998Z,102583.03
2023-05-19T10:10:22.255Z,102584.41
2023-05-19T10:15:25.973Z,102581.44
2023-05-19T10:20:28.701Z,102573.50
2023-05-19T10:25:34.246Z,102568.91
2023-05-19T10:30:39.969Z,102557.22
2023-05-19T10:36:08.540Z,102556.28
2023-05-19T10:41:17.591Z,102548.69
2023-05-19T10:46:24.754Z,102552.19
2023-05-19T10:51:31.721Z,102548.81
2023-05-19T10:56:36.294Z,102561.13
2023-05-19T11:01:41.622Z,102552.34
2023-05-19T11:06:52.196Z,102538.06
2023-05-19T11:11:57.034Z,102540.00
2023-05-19T11:17:01.218Z,102532.41
2023-05-19T11:22:11.017Z,102526.06
2023-05-19T11:27:27.020Z,102528.13
2023-05-19T11:32:31.538Z,102530.31
2023-05-19T11:37:34.631Z,102523.56
2023-05-19T11:42:38.535Z,102526.44
2023-05-19T11:47:57.254Z,102522.03
2023-05-19T11:53:03.857Z,102514.91
2023-05-19T11:58:08.234Z,102495.88
2023-05-19T12:03:10.908Z,102505.97
2023-05-19T12:08:13.696Z,102507.19
2023-05-19T12:13:17.844Z,102503.03
2023-05-19T12:18:20.520Z,102502.75
2023-05-19T12:23:24.595Z,102495.56
2023-05-19T12:28:30.961Z,102489.59
2023-05-19T12:33:35.669Z,102487.94
2023-05-19T12:38:39.540Z,102491.25
2023-05-19T12:43:43.442Z,102482.34
2023-05-19T12:48:46.861Z,102480.63
2023-05-19T12:53:51.201Z,102475.78
2023-05-19T12:58:56.060Z,102480.44
2023-05-19T13:03:58.798Z,102474.00
2023-05-19T13:09:01.412Z,102475.84
2023-05-19T13:14:05.288Z,102473.44
2023-05-19T13:19:13.944Z,102464.63
2023-05-19T13:24:26.704Z,102465.00
2023-05-19T13:29:30.581Z,102469.91
2023-05-19T13:34:33.677Z,102470.97
2023-05-19T13:39:36.425Z,102467.78
2023-05-19T13:44:40.412Z,102466.88
2023-05-19T13:49:42.948Z,102467.06
2023-05-19T13:54:45.664Z,102460.41
2023-05-19T14:00:00.797Z,102448.47
2023-05-19T14:05:05.519Z,102443.06
2023-05-19T14:10:09.201Z,102454.84
2023-05-19T14:15:13.338Z,102458.94
2023-05-19T14:20:15.965Z,102449.38
2023-05-19T14:25:18.528Z,102450.97
2023-05-19T14:30:22.495Z,102449.28
2023-05-19T14:35:25.253Z,102459.28
2023-05-19T14:40:27.935Z,102459.97
2023-05-19T14:45:31.912Z,102463.13
2023-05-19T14:50:34.821Z,102460.47
2023-05-19T14:55:37.499Z,102445.31
2023-05-19T15:00:41.396Z,102447.69
2023-05-19T15:05:44.002Z,102451.31
2023-05-19T15:10:49.408Z,102457.94
2023-05-19T15:16:08.342Z,102450.13
2023-05-19T15:21:17.896Z,102456.06
2023-05-19T15:26:20.460Z,102462.31
2023-05-19T15:31:24.365Z,102463.84
2023-05-19T15:36:26.917Z,102459.28
2023-05-19T15:41:29.437Z,102466.41
2023-05-19T15:46:34.152Z,102462.00
2023-05-19T15:51:36.787Z,102464.69
2023-05-19T15:56:39.333Z,102472.59
2023-05-19T16:01:43.363Z,102474.00
2023-05-19T16:06:45.943Z,102472.94
2023-05-19T16:11:48.504Z,102491.22
2023-05-19T16:16:52.449Z,102483.22
2023-05-19T16:21:55.016Z,102478.41
2023-05-19T16:26:57.582Z,102477.47
2023-05-19T16:32:02.009Z,102469.25
2023-05-19T16:37:05.073Z,102460.25
2023-05-19T16:42:07.669Z,102466.47
2023-05-19T16:47:11.535Z,102466.25
2023-05-19T16:52:14.128Z,102466.38
2023-05-19T16:57:16.701Z,102470.13
2023-05-19T17:02:20.660Z,102462.38
2023-05-19T17:07:23.273Z,102464.72
2023-05-19T17:12:25.984Z,102466.03
2023-05-19T17:17:29.848Z,102468.72
2023-05-19T17:22:32.423Z,102481.34
2023-05-19T17:27:34.985Z,102470.00
2023-05-19T17:32:39.623Z,102473.34
2023-05-19T17:37:42.333Z,102475.44
2023-05-19T17:42:44.867Z,102479.63
2023-05-19T17:47:49.352Z,102488.16
2023-05-19T17:52:52.737Z,102494.44
2023-05-19T17:57:55.873Z,102477.81
2023-05-19T18:03:01.700Z,102499.00
2023-05-19T18:08:09.166Z,102513.38
2023-05-19T18:13:13.936Z,102507.88
2023-05-19T18:18:17.841Z,102511.34
2023-05-19T18:23:20.582Z,102516.38
2023-05-19T18:28:24.461Z,102521.75
2023-05-19T18:33:30.103Z,102521.59
2023-05-19T18:38:33.718Z,102519.28
2023-05-19T18:43:36.338Z,102523.69
2023-05-19T18:48:40.208Z,102529.78
2023-05-19T18:53:42.754Z,102530.53
2023-05-19T18:58:45.311Z,102543.69
2023-05-19T19:03:49.323Z,102538.28
2023-05-19T19:08:51.937Z,102542.78
2023-05-19T19:13:56.321Z,102552.81
2023-05-19T19:19:00.477Z,102551.34
2023-05-19T19:24:03.266Z,102563.31
2023-05-19T19:29:05.831Z,102567.63
2023-05-19T19:34:11.149Z,102558.03
2023-05-19T19:39:13.703Z,102567.13
2023-05-19T19:44:16.264Z,102565.56
2023-05-19T19:49:20.152Z,102570.28
2023-05-19T19:54:22.782Z,102566.00
2023-05-19T19:59:26.897Z,102567.75
2023-05-19T20:04:31.515Z,102569.84
2023-05-19T20:09:34.160Z,102566.50
2023-05-19T20:14:36.917Z,102573.75
2023-05-19T20:19:40.832Z,102574.13
2023-05-19T20:24:43.412Z,102573.41
2023-05-19T20:29:46.952Z,102578.78
2023-05-19T20:34:50.822Z,102585.34
2023-05-19T20:39:53.362Z,102581.31
2023-05-19T20:44:55.932Z,102587.81
2023-05-19T20:49:59.792Z,102580.75
2023-05-19T20:55:02.353Z,102580.03
2023-05-19T21:00:05.856Z,102594.94
2023-05-19T21:05:10.270Z,102598.78
2023-05-19T21:10:14.352Z,102592.94
2023-05-19T21:15:16.942Z,102579.66
2023-05-19T21:20:20.946Z,102577.56
2023-05-19T21:25:23.515Z,102579.75
2023-05-19T21:30:26.393Z,102584.41
2023-05-19T21:35:30.237Z,102583.19
2023-05-19T21:40:32.920Z,102572.59
2023-05-19T21:45:35.620Z,102578.63
2023-05-19T21:50:39.659Z,102581.63
2023-05-19T21:55:42.153Z,102575.72
2023-05-19T22:00:49.709Z,102581.88
2023-05-19T22:05:55.300Z,102574.66
2023-05-19T22:10:57.857Z,102572.84
2023-05-19T22:16:00.401Z,102573.63
2023-05-19T22:21:04.501Z,102565.38
2023-05-19T22:26:07.199Z,102573.84
2023-05-19T22:31:09.735Z,102569.53
2023-05-19T22:36:15.950Z,102578.25
2023-05-19T22:41:18.484Z,102565.06
2023-05-19T22:46:21.099Z,102573.47
2023-05-19T22:51:25.010Z,102571.75
2023-05-19T22:56:27.615Z,102564.69
2023-05-19T23:01:30.230Z,102561.16
2023-05-19T23:06:34.119Z,102569.09
2023-05-19T23:11:36.722Z,102570.25
2023-05-19T23:16:39.485Z,102582.63
2023-05-19T23:21:44.503Z,102581.81
2023-05-19T23:26:47.066Z,102581.56
2023-05-19T23:31:49.680Z,102589.69
2023-05-19T23:36:53.595Z,102584.44
2023-05-19T23:41:56.279Z,102586.53
2023-05-19T23:46:58.909Z,102587.94
2023-05-19T23:52:04.040Z,102584.66
2023-05-19T23:57:06.825Z,102596.84
